sensor_id;sensor_type;location;lat;lon;timestamp;pressure;altitude;pressure_sealevel;temperature;humidity
69980;BME280;57318;56.232;43.944;2023-10-31T00:00:23;98230.56;;;2.78;100.00
69980;BME280;57318;56.232;43.944;2023-10-31T00:02:48;98233.94;;;2.80;100.00
69980;BME280;57318;56.232;43.944;2023-10-31T00:05:14;98234.03;;;2.79;100.00
69980;BME280;57318;56.232;43.944;2023-10-31T00:07:40;98223.66;;;2.77;100.00
69980;BME280;57318;56.232;43.944;2023-10-31T00:10:06;98235.78;;;2.78;100.00
69980;BME280;57318;56.232;43.944;2023-10-31T00:12:33;98228.88;;;2.77;100.00
69980;BME280;57318;56.232;43.944;2023-10-31T00:14:58;98235.06;;;2.76;100.00
69980;BME280;57318;56.232;43.944;2023-10-31T00:17:24;98229.94;;;2.75;100.00
69980;BME280;57318;56.232;43.944;2023-10-31T00:19:50;98221.94;;;2.76;100.00
69980;BME280;57318;56.232;43.944;2023-10-31T00:22:15;98217.66;;;2.75;100.00
69980;BME280;57318;56.232;43.944;2023-10-31T00:24:41;98219.34;;;2.76;100.00
69980;BME280;57318;56.232;43.944;2023-10-31T00:27:07;98213.16;;;2.77;100.00
69980;BME280;57318;56.232;43.944;2023-10-31T00:29:32;98217.66;;;2.75;100.00
69980;BME280;57318;56.232;43.944;2023-10-31T00:31:58;98216.81;;;2.75;100.00
69980;BME280;57318;56.232;43.944;2023-10-31T00:34:24;98213.25;;;2.76;100.00
69980;BME280;57318;56.232;43.944;2023-10-31T00:36:50;98220.81;;;2.80;100.00
69980;BME280;57318;56.232;43.944;2023-10-31T00:39:15;98211.03;;;2.82;100.00
69980;BME280;57318;56.232;43.944;2023-10-31T00:41:44;98207.50;;;2.83;100.00
69980;BME280;57318;56.232;43.944;2023-10-31T00:44:11;98211.97;;;2.81;100.00
69980;BME280;57318;56.232;43.944;2023-10-31T00:46:36;98200.75;;;2.79;100.00
69980;BME280;57318;56.232;43.944;2023-10-31T00:49:03;98200.75;;;2.79;100.00
69980;BME280;57318;56.232;43.944;2023-10-31T00:51:29;98194.59;;;2.80;100.00
69980;BME280;57318;56.232;43.944;2023-10-31T00:53:54;98196.25;;;2.81;100.00
69980;BME280;57318;56.232;43.944;2023-10-31T00:56:20;98195.31;;;2.82;100.00
69980;BME280;57318;56.232;43.944;2023-10-31T00:58:46;98190.69;;;2.86;100.00
69980;BME280;57318;56.232;43.944;2023-10-31T01:01:11;98183.88;;;2.83;100.00
69980;BME280;57318;56.232;43.944;2023-10-31T01:03:37;98195.09;;;2.85;100.00
69980;BME280;57318;56.232;43.944;2023-10-31T01:06:03;98191.00;;;2.81;100.00
69980;BME280;57318;56.232;43.944;2023-10-31T01:08:29;98190.06;;;2.82;100.00
69980;BME280;57318;56.232;43.944;2023-10-31T01:10:55;98180.59;;;2.80;100.00
69980;BME280;57318;56.232;43.944;2023-10-31T01:13:21;98197.94;;;2.82;100.00
69980;BME280;57318;56.232;43.944;2023-10-31T01:15:47;98197.81;;;2.84;100.00
69980;BME280;57318;56.232;43.944;2023-10-31T01:18:12;98196.13;;;2.83;100.00
69980;BME280;57318;56.232;43.944;2023-10-31T01:20:38;98199.50;;;2.85;100.00
69980;BME280;57318;56.232;43.944;2023-10-31T01:23:05;98203.47;;;2.91;100.00
69980;BME280;57318;56.232;43.944;2023-10-31T01:25:30;98203.06;;;2.97;100.00
69980;BME280;57318;56.232;43.944;2023-10-31T01:27:56;98198.13;;;3.05;100.00
69980;BME280;57318;56.232;43.944;2023-10-31T01:30:22;98194.88;;;3.14;100.00
69980;BME280;57318;56.232;43.944;2023-10-31T01:32:47;98185.00;;;3.18;100.00
69980;BME280;57318;56.232;43.944;2023-10-31T01:35:13;98187.31;;;3.22;100.00
69980;BME280;57318;56.232;43.944;2023-10-31T01:37:39;98185.31;;;3.26;100.00
69980;BME280;57318;56.232;43.944;2023-10-31T01:40:05;98193.78;;;3.30;100.00
69980;BME280;57318;56.232;43.944;2023-10-31T01:42:32;98190.97;;;3.33;100.00
69980;BME280;57318;56.232;43.944;2023-10-31T01:44:58;98184.78;;;3.34;100.00
69980;BME280;57318;56.232;43.944;2023-10-31T01:47:24;98181.81;;;3.38;100.00
69980;BME280;57318;56.232;43.944;2023-10-31T01:49:51;98185.78;;;3.44;100.00
69980;BME280;57318;56.232;43.944;2023-10-31T01:52:17;98194.41;;;3.46;100.00
69980;BME280;57318;56.232;43.944;2023-10-31T01:54:44;98192.81;;;3.43;100.00
69980;BME280;57318;56.232;43.944;2023-10-31T01:57:10;98193.75;;;3.42;100.00
69980;BME280;57318;56.232;43.944;2023-10-31T01:59:36;98195.66;;;3.40;100.00
69980;BME280;57318;56.232;43.944;2023-10-31T02:02:03;98192.22;;;3.40;100.00
69980;BME280;57318;56.232;43.944;2023-10-31T02:04:30;98202.19;;;3.35;100.00
69980;BME280;57318;56.232;43.944;2023-10-31T02:06:56;98202.63;;;3.29;100.00
69980;BME280;57318;56.232;43.944;2023-10-31T02:09:21;98199.16;;;3.28;100.00
69980;BME280;57318;56.232;43.944;2023-10-31T02:11:52;98213.88;;;3.31;100.00
69980;BME280;57318;56.232;43.944;2023-10-31T02:14:18;98218.91;;;3.34;100.00
69980;BME280;57318;56.232;43.944;2023-10-31T02:16:44;98189.47;;;3.41;100.00
69980;BME280;57318;56.232;43.944;2023-10-31T02:19:11;98203.13;;;3.47;100.00
69980;BME280;57318;56.232;43.944;2023-10-31T02:21:40;98195.13;;;3.48;100.00
69980;BME280;57318;56.232;43.944;2023-10-31T02:24:06;98193.00;;;3.53;100.00
69980;BME280;57318;56.232;43.944;2023-10-31T02:26:33;98203.78;;;3.61;100.00
69980;BME280;57318;56.232;43.944;2023-10-31T02:29:00;98189.50;;;3.66;100.00
69980;BME280;57318;56.232;43.944;2023-10-31T02:31:27;98199.69;;;3.70;100.00
69980;BME280;57318;56.232;43.944;2023-10-31T02:33:53;98210.69;;;3.75;100.00
69980;BME280;57318;56.232;43.944;2023-10-31T02:36:19;98211.13;;;3.82;100.00
69980;BME280;57318;56.232;43.944;2023-10-31T02:38:45;98205.81;;;3.95;100.00
69980;BME280;57318;56.232;43.944;2023-10-31T02:41:11;98205.38;;;4.01;100.00
69980;BME280;57318;56.232;43.944;2023-10-31T02:43:37;98203.44;;;4.03;100.00
69980;BME280;57318;56.232;43.944;2023-10-31T02:46:03;98213.13;;;4.03;100.00
69980;BME280;57318;56.232;43.944;2023-10-31T02:48:29;98222.34;;;4.08;100.00
69980;BME280;57318;56.232;43.944;2023-10-31T02:50:57;98231.81;;;4.11;100.00
69980;BME280;57318;56.232;43.944;2023-10-31T02:53:23;98243.25;;;4.10;100.00
69980;BME280;57318;56.232;43.944;2023-10-31T02:55:49;98246.28;;;4.16;100.00
69980;BME280;57318;56.232;43.944;2023-10-31T02:58:14;98255.13;;;4.15;100.00
69980;BME280;57318;56.232;43.944;2023-10-31T03:00:42;98265.88;;;4.12;100.00
69980;BME280;57318;56.232;43.944;2023-10-31T03:03:09;98263.13;;;4.14;100.00
69980;BME280;57318;56.232;43.944;2023-10-31T03:05:34;98251.78;;;4.13;100.00
69980;BME280;57318;56.232;43.944;2023-10-31T03:08:00;98261.00;;;4.19;100.00
69980;BME280;57318;56.232;43.944;2023-10-31T03:10:26;98261.00;;;4.19;100.00
69980;BME280;57318;56.232;43.944;2023-10-31T03:12:52;98263.31;;;4.24;100.00
69980;BME280;57318;56.232;43.944;2023-10-31T03:15:17;98264.88;;;4.26;100.00
69980;BME280;57318;56.232;43.944;2023-10-31T03:17:43;98269.16;;;4.27;100.00
69980;BME280;57318;56.232;43.944;2023-10-31T03:20:09;98270.84;;;4.28;100.00
69980;BME280;57318;56.232;43.944;2023-10-31T03:22:35;98272.53;;;4.29;100.00
69980;BME280;57318;56.232;43.944;2023-10-31T03:25:01;98278.63;;;4.30;100.00
69980;BME280;57318;56.232;43.944;2023-10-31T03:27:29;98282.84;;;4.32;100.00
69980;BME280;57318;56.232;43.944;2023-10-31T03:29:55;98269.69;;;4.32;100.00
69980;BME280;57318;56.232;43.944;2023-10-31T03:32:21;98282.84;;;4.32;100.00
69980;BME280;57318;56.232;43.944;2023-10-31T03:34:46;98283.78;;;4.31;100.00
69980;BME280;57318;56.232;43.944;2023-10-31T03:37:12;98295.03;;;4.33;100.00
69980;BME280;57318;56.232;43.944;2023-10-31T03:39:38;98315.94;;;4.35;100.00
69980;BME280;57318;56.232;43.944;2023-10-31T03:42:03;98311.00;;;4.30;100.00
69980;BME280;57318;56.232;43.944;2023-10-31T03:44:30;98319.78;;;4.31;100.00
69980;BME280;57318;56.232;43.944;2023-10-31T03:46:57;98313.88;;;4.27;100.00
69980;BME280;57318;56.232;43.944;2023-10-31T03:49:22;98322.72;;;4.26;100.00
69980;BME280;57318;56.232;43.944;2023-10-31T03:51:48;98323.88;;;4.22;100.00
69980;BME280;57318;56.232;43.944;2023-10-31T03:54:14;98323.28;;;4.19;100.00
69980;BME280;57318;56.232;43.944;2023-10-31T03:56:40;98318.84;;;4.19;100.00
69980;BME280;57318;56.232;43.944;2023-10-31T03:59:06;98334.84;;;4.16;100.00
69980;BME280;57318;56.232;43.944;2023-10-31T04:01:32;98333.41;;;4.12;100.00
69980;BME280;57318;56.232;43.944;2023-10-31T04:03:58;98350.00;;;4.12;100.00
69980;BME280;57318;56.232;43.944;2023-10-31T04:06:24;98349.28;;;4.10;100.00
69980;BME280;57318;56.232;43.944;2023-10-31T04:08:49;98351.25;;;4.07;100.00
69980;BME280;57318;56.232;43.944;2023-10-31T04:11:15;98358.44;;;4.05;100.00
69980;BME280;57318;56.232;43.944;2023-10-31T04:13:41;98356.75;;;4.04;100.00
69980;BME280;57318;56.232;43.944;2023-10-31T04:16:07;98369.88;;;4.04;100.00
69980;BME280;57318;56.232;43.944;2023-10-31T04:18:33;98363.91;;;4.02;100.00
69980;BME280;57318;56.232;43.944;2023-10-31T04:20:58;98373.69;;;4.00;100.00
69980;BME280;57318;56.232;43.944;2023-10-31T04:23:24;98383.34;;;3.99;100.00
69980;BME280;57318;56.232;43.944;2023-10-31T04:25:51;98389.78;;;3.95;100.00
69980;BME280;57318;56.232;43.944;2023-10-31T04:28:18;98396.59;;;3.97;100.00
69980;BME280;57318;56.232;43.944;2023-10-31T04:30:44;98395.88;;;3.95;100.00
69980;BME280;57318;56.232;43.944;2023-10-31T04:33:10;98399.44;;;3.94;100.00
69980;BME280;57318;56.232;43.944;2023-10-31T04:35:35;98402.81;;;3.96;100.00
69980;BME280;57318;56.232;43.944;2023-10-31T04:38:01;98419.63;;;3.94;100.00
69980;BME280;57318;56.232;43.944;2023-10-31T04:40:27;98419.63;;;3.94;100.00
69980;BME280;57318;56.232;43.944;2023-10-31T04:42:52;98417.94;;;3.93;100.00
69980;BME280;57318;56.232;43.944;2023-10-31T04:45:18;98431.19;;;3.91;100.00
69980;BME280;57318;56.232;43.944;2023-10-31T04:47:44;98431.19;;;3.91;100.00
69980;BME280;57318;56.232;43.944;2023-10-31T04:50:09;98438.13;;;3.92;100.00
69980;BME280;57318;56.232;43.944;2023-10-31T04:52:35;98445.19;;;3.92;100.00
69980;BME280;57318;56.232;43.944;2023-10-31T04:55:01;98449.59;;;3.91;100.00
69980;BME280;57318;56.232;43.944;2023-10-31T04:57:30;98446.13;;;3.91;100.00
69980;BME280;57318;56.232;43.944;2023-10-31T04:59:56;98454.13;;;3.89;100.00
69980;BME280;57318;56.232;43.944;2023-10-31T05:02:23;98470.72;;;3.90;100.00
69980;BME280;57318;56.232;43.944;2023-10-31T05:04:49;98472.50;;;3.89;100.00
69980;BME280;57318;56.232;43.944;2023-10-31T05:07:19;98477.56;;;3.92;100.00
69980;BME280;57318;56.232;43.944;2023-10-31T05:09:45;98477.03;;;3.87;100.00
69980;BME280;57318;56.232;43.944;2023-10-31T05:12:11;98478.69;;;3.88;100.00
69980;BME280;57318;56.232;43.944;2023-10-31T05:14:37;98497.22;;;3.87;100.00
69980;BME280;57318;56.232;43.944;2023-10-31T05:17:03;98478.94;;;3.85;100.00
69980;BME280;57318;56.232;43.944;2023-10-31T05:19:29;98504.34;;;3.85;100.00
69980;BME280;57318;56.232;43.944;2023-10-31T05:21:55;98511.41;;;3.84;100.00
69980;BME280;57318;56.232;43.944;2023-10-31T05:24:20;98508.06;;;3.82;100.00
69980;BME280;57318;56.232;43.944;2023-10-31T05:26:46;98516.88;;;3.81;100.00
69980;BME280;57318;56.232;43.944;2023-10-31T05:29:12;98512.53;;;3.80;100.00
69980;BME280;57318;56.232;43.944;2023-10-31T05:31:38;98523.25;;;3.77;100.00
69980;BME280;57318;56.232;43.944;2023-10-31T05:34:04;98525.16;;;3.75;100.00
69980;BME280;57318;56.232;43.944;2023-10-31T05:36:30;98536.50;;;3.75;100.00
69980;BME280;57318;56.232;43.944;2023-10-31T05:38:56;98549.75;;;3.74;100.00
69980;BME280;57318;56.232;43.944;2023-10-31T05:41:21;98572.44;;;3.75;100.00
69980;BME280;57318;56.232;43.944;2023-10-31T05:43:48;98564.78;;;3.72;100.00
69980;BME280;57318;56.232;43.944;2023-10-31T05:46:13;98571.94;;;3.70;100.00
69980;BME280;57318;56.232;43.944;2023-10-31T05:48:43;98576.63;;;3.65;100.00
69980;BME280;57318;56.232;43.944;2023-10-31T05:51:13;98588.38;;;3.59;100.00
69980;BME280;57318;56.232;43.944;2023-10-31T05:53:40;98598.06;;;3.58;100.00
69980;BME280;57318;56.232;43.944;2023-10-31T05:56:07;98587.75;;;3.55;100.00
69980;BME280;57318;56.232;43.944;2023-10-31T05:58:33;98597.50;;;3.53;100.00
69980;BME280;57318;56.232;43.944;2023-10-31T06:00:58;98593.19;;;3.52;100.00
69980;BME280;57318;56.232;43.944;2023-10-31T06:03:24;98603.81;;;3.51;100.00
69980;BME280;57318;56.232;43.944;2023-10-31T06:05:50;98603.81;;;3.51;100.00
69980;BME280;57318;56.232;43.944;2023-10-31T06:08:15;98604.53;;;3.53;100.00
69980;BME280;57318;56.232;43.944;2023-10-31T06:10:41;98618.59;;;3.52;100.00
69980;BME280;57318;56.232;43.944;2023-10-31T06:13:07;98612.63;;;3.50;100.00
69980;BME280;57318;56.232;43.944;2023-10-31T06:15:32;98620.50;;;3.50;100.00
69980;BME280;57318;56.232;43.944;2023-10-31T06:17:58;98625.94;;;3.47;100.00
69980;BME280;57318;56.232;43.944;2023-10-31T06:20:24;98619.75;;;3.48;100.00
69980;BME280;57318;56.232;43.944;2023-10-31T06:22:50;98622.28;;;3.49;100.00
69980;BME280;57318;56.232;43.944;2023-10-31T06:25:15;98621.31;;;3.50;100.00
69980;BME280;57318;56.232;43.944;2023-10-31T06:27:41;98615.16;;;3.51;100.00
69980;BME280;57318;56.232;43.944;2023-10-31T06:30:07;98619.00;;;3.46;100.00
69980;BME280;57318;56.232;43.944;2023-10-31T06:32:33;98622.28;;;3.49;100.00
69980;BME280;57318;56.232;43.944;2023-10-31T06:34:58;98628.47;;;3.48;100.00
69980;BME280;57318;56.232;43.944;2023-10-31T06:37:24;98638.16;;;3.48;100.00
69980;BME280;57318;56.232;43.944;2023-10-31T06:39:50;98636.78;;;3.55;100.00
69980;BME280;57318;56.232;43.944;2023-10-31T06:42:15;98643.22;;;3.51;100.00
69980;BME280;57318;56.232;43.944;2023-10-31T06:44:41;98654.53;;;3.51;100.00
69980;BME280;57318;56.232;43.944;2023-10-31T06:47:07;98658.09;;;3.50;100.00
69980;BME280;57318;56.232;43.944;2023-10-31T06:49:32;98669.38;;;3.52;99.49
69980;BME280;57318;56.232;43.944;2023-10-31T06:51:58;98666.56;;;3.55;99.01
69980;BME280;57318;56.232;43.944;2023-10-31T06:54:24;98675.16;;;3.57;98.81
69980;BME280;57318;56.232;43.944;2023-10-31T06:56:49;98682.50;;;3.52;97.81
69980;BME280;57318;56.232;43.944;2023-10-31T06:59:15;98677.25;;;3.52;97.85
69980;BME280;57318;56.232;43.944;2023-10-31T07:01:40;98693.22;;;3.49;97.60
69980;BME280;57318;56.232;43.944;2023-10-31T07:04:06;98695.16;;;3.46;97.51
69980;BME280;57318;56.232;43.944;2023-10-31T07:06:32;98698.06;;;3.41;96.70
69980;BME280;57318;56.232;43.944;2023-10-31T07:08:58;98697.16;;;3.42;97.05
69980;BME280;57318;56.232;43.944;2023-10-31T07:11:25;98715.63;;;3.40;96.83
69980;BME280;57318;56.232;43.944;2023-10-31T07:13:51;98718.53;;;3.36;96.13
69980;BME280;57318;56.232;43.944;2023-10-31T07:16:17;98731.03;;;3.32;96.39
69980;BME280;57318;56.232;43.944;2023-10-31T07:18:42;98731.41;;;3.26;96.11
69980;BME280;57318;56.232;43.944;2023-10-31T07:21:08;98739.56;;;3.21;95.54
69980;BME280;57318;56.232;43.944;2023-10-31T07:23:33;98746.88;;;3.16;96.52
69980;BME280;57318;56.232;43.944;2023-10-31T07:25:59;98757.75;;;3.10;96.77
69980;BME280;57318;56.232;43.944;2023-10-31T07:28:25;98756.41;;;3.03;96.50
69980;BME280;57318;56.232;43.944;2023-10-31T07:30:50;98767.66;;;3.05;96.59
69980;BME280;57318;56.232;43.944;2023-10-31T07:33:16;98773.84;;;3.04;96.91
69980;BME280;57318;56.232;43.944;2023-10-31T07:35:42;98780.91;;;3.03;97.02
69980;BME280;57318;56.232;43.944;2023-10-31T07:38:07;98792.97;;;3.06;97.47
69980;BME280;57318;56.232;43.944;2023-10-31T07:40:33;98799.06;;;3.06;96.98
69980;BME280;57318;56.232;43.944;2023-10-31T07:42:59;98794.84;;;3.04;96.65
69980;BME280;57318;56.232;43.944;2023-10-31T07:45:24;98807.22;;;3.02;96.71
69980;BME280;57318;56.232;43.944;2023-10-31T07:47:50;98815.84;;;3.04;97.27
69980;BME280;57318;56.232;43.944;2023-10-31T07:50:16;98812.28;;;3.05;97.25
69980;BME280;57318;56.232;43.944;2023-10-31T07:52:41;98825.41;;;3.05;96.97
69980;BME280;57318;56.232;43.944;2023-10-31T07:55:09;98825.31;;;3.06;97.42
69980;BME280;57318;56.232;43.944;2023-10-31T07:57:36;98836.38;;;2.97;96.60
69980;BME280;57318;56.232;43.944;2023-10-31T08:00:02;98831.31;;;2.94;96.72
69980;BME280;57318;56.232;43.944;2023-10-31T08:02:29;98846.97;;;2.96;96.62
69980;BME280;57318;56.232;43.944;2023-10-31T08:04:55;98841.03;;;2.92;96.01
69980;BME280;57318;56.232;43.944;2023-10-31T08:07:21;98837.75;;;2.88;95.75
69980;BME280;57318;56.232;43.944;2023-10-31T08:09:48;98831.47;;;2.91;96.13
69980;BME280;57318;56.232;43.944;2023-10-31T08:12:14;98822.28;;;2.98;96.59
69980;BME280;57318;56.232;43.944;2023-10-31T08:14:40;98831.41;;;3.07;96.60
69980;BME280;57318;56.232;43.944;2023-10-31T08:17:06;98824.84;;;3.14;96.64
69980;BME280;57318;56.232;43.944;2023-10-31T08:19:31;98824.75;;;3.16;95.81
69980;BME280;57318;56.232;43.944;2023-10-31T08:21:57;98837.06;;;3.15;95.20
69980;BME280;57318;56.232;43.944;2023-10-31T08:24:23;98833.59;;;3.15;95.30
69980;BME280;57318;56.232;43.944;2023-10-31T08:26:48;98840.78;;;3.11;93.82
69980;BME280;57318;56.232;43.944;2023-10-31T08:29:14;98833.59;;;3.15;94.62
69980;BME280;57318;56.232;43.944;2023-10-31T08:31:40;98842.31;;;3.15;95.24
69980;BME280;57318;56.232;43.944;2023-10-31T08:34:05;98856.19;;;3.17;95.02
69980;BME280;57318;56.232;43.944;2023-10-31T08:36:31;98861.34;;;3.19;94.74
69980;BME280;57318;56.232;43.944;2023-10-31T08:38:57;98870.44;;;3.13;94.54
69980;BME280;57318;56.232;43.944;2023-10-31T08:41:23;98882.22;;;3.06;93.57
69980;BME280;57318;56.232;43.944;2023-10-31T08:43:48;98876.41;;;3.01;93.31
69980;BME280;57318;56.232;43.944;2023-10-31T08:46:14;98873.03;;;2.99;93.66
69980;BME280;57318;56.232;43.944;2023-10-31T08:48:40;98877.41;;;2.98;93.77
69980;BME280;57318;56.232;43.944;2023-10-31T08:51:05;98883.69;;;2.96;94.01
69980;BME280;57318;56.232;43.944;2023-10-31T08:53:31;98892.50;;;2.95;93.80
69980;BME280;57318;56.232;43.944;2023-10-31T08:55:57;98895.13;;;2.95;93.66
69980;BME280;57318;56.232;43.944;2023-10-31T08:58:23;98902.06;;;2.96;93.90
69980;BME280;57318;56.232;43.944;2023-10-31T09:00:48;98916.88;;;2.97;93.60
69980;BME280;57318;56.232;43.944;2023-10-31T09:03:14;98929.41;;;2.92;93.49
69980;BME280;57318;56.232;43.944;2023-10-31T09:05:40;98949.56;;;2.91;93.12
69980;BME280;57318;56.232;43.944;2023-10-31T09:08:06;98957.44;;;2.91;93.44
69980;BME280;57318;56.232;43.944;2023-10-31T09:10:36;98959.38;;;2.87;93.31
69980;BME280;57318;56.232;43.944;2023-10-31T09:13:05;98964.44;;;2.91;93.60
69980;BME280;57318;56.232;43.944;2023-10-31T09:15:30;98974.94;;;2.91;93.23
69980;BME280;57318;56.232;43.944;2023-10-31T09:17:56;98980.28;;;2.89;93.20
69980;BME280;57318;56.232;43.944;2023-10-31T09:20:22;98983.00;;;2.87;93.45
69980;BME280;57318;56.232;43.944;2023-10-31T09:22:48;99004.75;;;2.89;93.46
69980;BME280;57318;56.232;43.944;2023-10-31T09:25:13;98992.91;;;2.82;93.06
69980;BME280;57318;56.232;43.944;2023-10-31T09:27:40;98995.59;;;2.81;93.53
69980;BME280;57318;56.232;43.944;2023-10-31T09:30:07;99019.72;;;2.87;93.57
69980;BME280;57318;56.232;43.944;2023-10-31T09:32:33;99025.13;;;2.84;93.32
69980;BME280;57318;56.232;43.944;2023-10-31T09:34:59;99022.69;;;2.81;93.28
69980;BME280;57318;56.232;43.944;2023-10-31T09:37:24;99019.22;;;2.81;92.95
69980;BME280;57318;56.232;43.944;2023-10-31T09:39:50;99023.63;;;2.80;93.27
69980;BME280;57318;56.232;43.944;2023-10-31T09:42:15;99022.84;;;2.78;93.41
69980;BME280;57318;56.232;43.944;2023-10-31T09:44:41;99003.47;;;2.81;93.47
69980;BME280;57318;56.232;43.944;2023-10-31T09:47:07;99024.22;;;2.85;93.41
69980;BME280;57318;56.232;43.944;2023-10-31T09:49:33;99020.50;;;2.89;93.41
69980;BME280;57318;56.232;43.944;2023-10-31T09:51:59;99028.97;;;2.95;93.76
69980;BME280;57318;56.232;43.944;2023-10-31T09:54:26;99032.44;;;2.95;93.80
69980;BME280;57318;56.232;43.944;2023-10-31T09:56:52;99028.03;;;2.96;93.73
69980;BME280;57318;56.232;43.944;2023-10-31T09:59:18;99032.97;;;3.02;93.71
69980;BME280;57318;56.232;43.944;2023-10-31T10:01:44;99040.47;;;3.08;93.61
69980;BME280;57318;56.232;43.944;2023-10-31T10:04:10;99050.13;;;3.07;93.56
69980;BME280;57318;56.232;43.944;2023-10-31T10:06:48;99056.38;;;3.05;92.77
69980;BME280;57318;56.232;43.944;2023-10-31T10:09:14;99055.53;;;3.04;92.91
69980;BME280;57318;56.232;43.944;2023-10-31T10:11:40;99051.25;;;3.03;92.63
69980;BME280;57318;56.232;43.944;2023-10-31T10:14:06;99059.63;;;3.10;93.14
69980;BME280;57318;56.232;43.944;2023-10-31T10:16:34;99061.22;;;3.13;92.73
69980;BME280;57318;56.232;43.944;2023-10-31T10:19:17;99054.03;;;3.16;92.88
69980;BME280;57318;56.232;43.944;2023-10-31T10:21:55;99053.06;;;3.17;92.97
69980;BME280;57318;56.232;43.944;2023-10-31T10:24:22;99059.69;;;3.09;92.38
69980;BME280;57318;56.232;43.944;2023-10-31T10:26:48;99050.13;;;3.07;92.69
69980;BME280;57318;56.232;43.944;2023-10-31T10:29:14;99051.91;;;3.07;92.65
69980;BME280;57318;56.232;43.944;2023-10-31T10:31:40;99049.28;;;3.07;92.49
69980;BME280;57318;56.232;43.944;2023-10-31T10:34:07;99063.16;;;3.09;92.28
69980;BME280;57318;56.232;43.944;2023-10-31T10:36:33;99066.88;;;3.05;92.30
69980;BME280;57318;56.232;43.944;2023-10-31T10:38:59;99062.31;;;3.09;92.10
69980;BME280;57318;56.232;43.944;2023-10-31T10:41:26;99065.44;;;3.15;92.07
69980;BME280;57318;56.232;43.944;2023-10-31T10:43:56;99069.78;;;3.16;91.60
69980;BME280;57318;56.232;43.944;2023-10-31T10:46:25;99077.56;;;3.18;92.21
69980;BME280;57318;56.232;43.944;2023-10-31T10:48:55;99082.81;;;3.18;92.05
69980;BME280;57318;56.232;43.944;2023-10-31T10:52:27;99102.28;;;3.14;91.82
69980;BME280;57318;56.232;43.944;2023-10-31T10:54:40;99104.50;;;3.05;91.45
69980;BME280;57318;56.232;43.944;2023-10-31T10:57:14;99104.50;;;3.05;91.79
69980;BME280;57318;56.232;43.944;2023-10-31T10:59:42;99111.25;;;3.10;92.23
69980;BME280;57318;56.232;43.944;2023-10-31T11:02:09;99108.63;;;3.10;91.84
69980;BME280;57318;56.232;43.944;2023-10-31T11:04:37;99099.16;;;3.07;91.82
69980;BME280;57318;56.232;43.944;2023-10-31T11:07:04;99122.00;;;3.05;91.89
69980;BME280;57318;56.232;43.944;2023-10-31T11:09:31;99122.13;;;3.03;91.75
69980;BME280;57318;56.232;43.944;2023-10-31T11:11:57;99116.94;;;3.02;92.04
69980;BME280;57318;56.232;43.944;2023-10-31T11:14:23;99122.19;;;3.02;92.20
69980;BME280;57318;56.232;43.944;2023-10-31T11:16:55;99124.03;;;3.00;92.51
69980;BME280;57318;56.232;43.944;2023-10-31T11:19:23;99140.56;;;3.02;92.14
69980;BME280;57318;56.232;43.944;2023-10-31T11:21:58;99131.31;;;2.95;92.57
69980;BME280;57318;56.232;43.944;2023-10-31T11:24:28;99128.88;;;2.92;92.33
69980;BME280;57318;56.232;43.944;2023-10-31T11:27:01;99136.41;;;2.98;92.70
69980;BME280;57318;56.232;43.944;2023-10-31T11:29:27;99133.63;;;3.01;92.75
69980;BME280;57318;56.232;43.944;2023-10-31T11:31:56;99137.75;;;3.05;92.53
69980;BME280;57318;56.232;43.944;2023-10-31T11:34:23;99151.75;;;3.05;92.51
69980;BME280;57318;56.232;43.944;2023-10-31T11:36:51;99150.88;;;3.05;92.67
69980;BME280;57318;56.232;43.944;2023-10-31T11:39:21;99170.28;;;3.02;92.35
69980;BME280;57318;56.232;43.944;2023-10-31T11:41:54;99166.28;;;2.95;92.30
69980;BME280;57318;56.232;43.944;2023-10-31T11:44:27;99185.34;;;2.99;92.70
69980;BME280;57318;56.232;43.944;2023-10-31T11:46:53;99184.41;;;3.00;92.44
69980;BME280;57318;56.232;43.944;2023-10-31T11:49:45;99186.19;;;2.99;92.53
69980;BME280;57318;56.232;43.944;2023-10-31T11:52:16;99183.41;;;3.02;93.01
69980;BME280;57318;56.232;43.944;2023-10-31T11:54:42;99179.16;;;3.00;92.41
69980;BME280;57318;56.232;43.944;2023-10-31T11:57:08;99189.50;;;3.03;92.48
69980;BME280;57318;56.232;43.944;2023-10-31T11:59:37;99195.78;;;3.00;92.17
69980;BME280;57318;56.232;43.944;2023-10-31T12:02:16;99206.28;;;3.00;92.49
69980;BME280;57318;56.232;43.944;2023-10-31T12:04:43;99200.31;;;2.97;91.90
69980;BME280;57318;56.232;43.944;2023-10-31T12:07:10;99202.34;;;2.92;91.33
69980;BME280;57318;56.232;43.944;2023-10-31T12:09:48;99209.47;;;2.89;91.74
69980;BME280;57318;56.232;43.944;2023-10-31T12:12:15;99217.34;;;2.89;91.97
69980;BME280;57318;56.232;43.944;2023-10-31T12:14:41;99213.84;;;2.89;92.03
69980;BME280;57318;56.232;43.944;2023-10-31T12:17:07;99205.44;;;2.82;92.00
69980;BME280;57318;56.232;43.944;2023-10-31T12:19:33;99207.06;;;2.85;91.91
69980;BME280;57318;56.232;43.944;2023-10-31T12:21:59;99217.72;;;2.82;91.34
69980;BME280;57318;56.232;43.944;2023-10-31T12:24:25;99226.38;;;2.84;91.60
69980;BME280;57318;56.232;43.944;2023-10-31T12:26:51;99222.97;;;2.82;91.41
69980;BME280;57318;56.232;43.944;2023-10-31T12:29:18;99214.50;;;2.77;91.75
69980;BME280;57318;56.232;43.944;2023-10-31T12:31:48;99226.00;;;2.74;91.40
69980;BME280;57318;56.232;43.944;2023-10-31T12:34:15;99229.53;;;2.73;91.60
69980;BME280;57318;56.232;43.944;2023-10-31T12:36:42;99225.00;;;2.77;91.85
69980;BME280;57318;56.232;43.944;2023-10-31T12:39:11;99225.75;;;2.79;91.67
69980;BME280;57318;56.232;43.944;2023-10-31T12:41:38;99228.31;;;2.80;91.89
69980;BME280;57318;56.232;43.944;2023-10-31T12:44:05;99230.69;;;2.85;92.11
69980;BME280;57318;56.232;43.944;2023-10-31T12:46:32;99231.53;;;2.85;91.48
69980;BME280;57318;56.232;43.944;2023-10-31T12:48:58;99235.00;;;2.86;91.59
69980;BME280;57318;56.232;43.944;2023-10-31T12:51:25;99235.84;;;2.86;92.19